createdAt,value
2018-04-12T00:01:45.831Z,11.30
2018-04-12T00:06:51.824Z,11.30
2018-04-12T00:09:22.725Z,11.10
2018-04-12T00:11:54.800Z,10.80
2018-04-12T00:14:26.024Z,10.40
2018-04-12T00:16:58.387Z,10.40
2018-04-12T00:19:29.720Z,10.80
2018-04-12T00:22:02.908Z,10.40
2018-04-12T00:24:34.183Z,10.40
2018-04-12T00:27:08.190Z,9.80
2018-04-12T00:29:43.086Z,9.80
2018-04-12T00:32:12.591Z,9.70
2018-04-12T00:34:42.886Z,9.70
2018-04-12T00:37:16.195Z,9.80
2018-04-12T00:39:45.761Z,9.80
2018-04-12T00:42:18.485Z,9.50
2018-04-12T00:44:49.436Z,9.50
2018-04-12T00:47:28.301Z,9.40
2018-04-12T00:49:58.220Z,9.50
2018-04-12T00:52:33.038Z,9.30
2018-04-12T00:55:08.086Z,9.30
2018-04-12T00:57:39.237Z,9.20
2018-04-12T01:00:09.031Z,9.40
2018-04-12T01:02:39.214Z,9.20
2018-04-12T01:05:12.873Z,9.20
2018-04-12T01:07:45.787Z,9.30
2018-04-12T01:21:01.913Z,9.40
2018-04-12T01:23:34.704Z,9.00
2018-04-12T01:28:42.980Z,9.00
2018-04-12T01:31:15.299Z,8.90
2018-04-12T01:33:48.515Z,9.00
2018-04-12T01:36:22.655Z,8.90
2018-04-12T01:38:54.416Z,9.00
2018-04-12T01:41:24.493Z,8.90
2018-04-12T01:43:56.385Z,9.00
2018-04-12T01:46:28.459Z,8.90
2018-04-12T01:49:00.654Z,9.00
2018-04-12T01:51:30.269Z,8.90
2018-04-12T01:53:59.624Z,9.00
2018-04-12T01:56:29.619Z,9.00
2018-04-12T01:58:59.277Z,8.90
2018-04-12T02:01:28.830Z,8.80
2018-04-12T02:03:57.771Z,8.80
2018-04-12T02:06:27.023Z,8.70
2018-04-12T02:08:56.272Z,8.70
2018-04-12T02:11:25.610Z,8.50
2018-04-12T02:13:55.252Z,8.70
2018-04-12T02:16:24.734Z,8.60
2018-04-12T02:18:53.939Z,8.60
2018-04-12T02:21:23.800Z,8.50
2018-04-12T02:23:54.652Z,8.60
2018-04-12T02:26:24.931Z,8.60
2018-04-12T02:28:54.235Z,8.60
2018-04-12T02:31:23.554Z,8.60
2018-04-12T02:33:52.903Z,8.60
2018-04-12T02:36:22.054Z,8.60
2018-04-12T02:38:51.589Z,8.60
2018-04-12T02:41:20.789Z,8.40
2018-04-12T02:43:50.081Z,8.70
2018-04-12T02:46:20.075Z,8.50
2018-04-12T02:48:50.048Z,8.50
2018-04-12T02:51:20.250Z,8.50
2018-04-12T02:53:49.721Z,8.50
2018-04-12T02:56:19.839Z,8.60
2018-04-12T02:58:49.610Z,8.40
2018-04-12T03:01:20.372Z,8.40
2018-04-12T03:03:49.651Z,8.40
2018-04-12T03:06:20.407Z,8.40
2018-04-12T03:08:50.011Z,8.40
2018-04-12T03:11:24.578Z,8.40
2018-04-12T03:13:55.265Z,8.10
2018-04-12T03:16:25.006Z,8.10
2018-04-12T03:18:54.999Z,8.00
2018-04-12T03:21:25.652Z,8.30
2018-04-12T03:23:56.688Z,8.10
2018-04-12T03:26:27.125Z,8.00
2018-04-12T03:28:56.792Z,8.00
2018-04-12T03:31:26.597Z,8.20
2018-04-12T03:33:57.250Z,7.90
2018-04-12T03:36:27.047Z,8.10
2018-04-12T03:38:57.242Z,7.90
2018-04-12T03:41:26.876Z,8.00
2018-04-12T03:43:56.199Z,7.90
2018-04-12T03:46:27.020Z,7.70
2018-04-12T03:51:35.254Z,7.70
2018-04-12T03:54:05.072Z,7.40
2018-04-12T03:56:35.364Z,7.30
2018-04-12T03:59:04.762Z,7.60
2018-04-12T04:01:34.823Z,7.30
2018-04-12T04:04:04.357Z,7.30
2018-04-12T04:06:33.709Z,7.30
2018-04-12T04:09:04.571Z,7.20
2018-04-12T04:11:34.281Z,7.20
2018-04-12T04:14:03.777Z,7.00
2018-04-12T04:16:44.501Z,7.00
2018-04-12T04:19:25.244Z,7.10
2018-04-12T04:21:54.836Z,7.20
2018-04-12T04:24:27.154Z,7.10
2018-04-12T04:26:57.088Z,7.00
2018-04-12T04:29:26.224Z,7.00
2018-04-12T04:31:56.522Z,7.00
2018-04-12T04:34:25.367Z,7.20
2018-04-12T04:36:54.481Z,7.10
2018-04-12T04:39:23.304Z,7.50
2018-04-12T04:41:52.834Z,7.20
2018-04-12T04:44:21.716Z,7.20
2018-04-12T04:46:51.234Z,7.10
2018-04-12T04:49:20.767Z,6.90
2018-04-12T04:51:49.951Z,6.90
2018-04-12T04:54:18.730Z,6.70
2018-04-12T04:56:47.622Z,6.80
2018-04-12T04:59:17.634Z,6.60
2018-04-12T05:01:47.128Z,6.60
2018-04-12T05:04:16.202Z,6.90
2018-04-12T05:06:45.563Z,6.90
2018-04-12T05:09:14.781Z,6.90
2018-04-12T05:11:44.576Z,6.80
2018-04-12T05:14:14.273Z,6.90
2018-04-12T05:16:43.562Z,7.00
2018-04-12T05:19:13.610Z,6.80
2018-04-12T05:21:43.093Z,6.70
2018-04-12T05:24:12.657Z,6.70
2018-04-12T05:26:43.225Z,6.70
2018-04-12T05:29:13.055Z,6.70
2018-04-12T05:31:42.701Z,6.60
2018-04-12T05:34:12.011Z,6.80
2018-04-12T05:36:41.508Z,6.80
2018-04-12T05:39:11.136Z,6.70
2018-04-12T05:41:40.955Z,6.60
2018-04-12T05:44:10.740Z,6.60
2018-04-12T05:46:39.916Z,6.60
2018-04-12T05:49:09.654Z,6.60
2018-04-12T05:51:39.578Z,6.70
2018-04-12T05:54:09.150Z,6.70
2018-04-12T05:56:38.541Z,6.60
2018-04-12T05:59:07.729Z,6.70
2018-04-12T06:01:37.060Z,6.60
2018-04-12T06:04:08.162Z,6.70
2018-04-12T06:06:37.497Z,7.00
2018-04-12T06:09:07.407Z,6.60
2018-04-12T06:11:38.604Z,6.60
2018-04-12T06:14:08.261Z,6.60
2018-04-12T06:16:37.769Z,6.80
2018-04-12T06:19:07.092Z,7.10
2018-04-12T06:21:36.376Z,6.80
2018-04-12T06:24:05.545Z,6.60
2018-04-12T06:26:34.761Z,6.60
2018-04-12T06:29:05.338Z,6.60
2018-04-12T06:31:34.975Z,6.70
2018-04-12T06:34:04.235Z,6.80
2018-04-12T06:36:33.752Z,6.60
2018-04-12T06:39:03.054Z,6.80
2018-04-12T06:41:32.546Z,6.90
2018-04-12T06:44:01.768Z,6.60
2018-04-12T06:46:30.925Z,6.90
2018-04-12T06:49:00.504Z,6.60
2018-04-12T06:51:30.676Z,6.90
2018-04-12T06:54:00.240Z,6.90
2018-04-12T06:56:29.725Z,7.10
2018-04-12T06:59:00.030Z,6.60
2018-04-12T07:01:29.750Z,6.60
2018-04-12T07:03:59.907Z,6.90
2018-04-12T07:06:29.015Z,6.60
2018-04-12T07:08:58.335Z,6.60
2018-04-12T07:11:28.092Z,6.70
2018-04-12T07:13:57.752Z,6.70
2018-04-12T07:16:26.966Z,6.30
2018-04-12T07:18:56.661Z,6.60
2018-04-12T07:21:26.147Z,6.50
2018-04-12T07:23:55.472Z,6.50
2018-04-12T07:26:24.812Z,6.50
2018-04-12T07:28:55.030Z,6.60
2018-04-12T07:31:26.468Z,6.60
2018-04-12T07:33:56.691Z,6.60
2018-04-12T07:36:25.961Z,6.70
2018-04-12T07:38:55.263Z,6.50
2018-04-12T07:41:24.997Z,6.60
2018-04-12T07:43:54.526Z,6.80
2018-04-12T07:46:23.947Z,6.20
2018-04-12T07:48:53.703Z,6.30
2018-04-12T07:51:24.504Z,6.40
2018-04-12T07:53:54.097Z,6.40
2018-04-12T07:56:23.311Z,6.40
2018-04-12T07:58:52.832Z,6.30
2018-04-12T08:01:22.322Z,6.40
2018-04-12T08:03:52.266Z,6.20
2018-04-12T08:06:21.594Z,6.30
2018-04-12T08:08:50.866Z,6.40
2018-04-12T08:11:20.458Z,6.10
2018-04-12T08:13:50.356Z,6.20
2018-04-12T08:16:19.941Z,6.30
2018-04-12T08:18:50.007Z,6.20
2018-04-12T08:21:19.546Z,6.20
2018-04-12T08:23:48.829Z,6.40
2018-04-12T08:26:17.932Z,6.20
2018-04-12T08:28:47.256Z,5.90
2018-04-12T08:31:16.922Z,5.90
2018-04-12T08:33:48.329Z,6.10
2018-04-12T08:36:18.305Z,5.90
2018-04-12T08:38:48.204Z,6.00
2018-04-12T08:41:17.781Z,6.00
2018-04-12T08:43:46.968Z,5.90
2018-04-12T08:46:16.222Z,6.00
2018-04-12T08:48:45.469Z,6.00
2018-04-12T08:51:15.361Z,5.90
2018-04-12T08:53:44.914Z,6.00
2018-04-12T08:56:14.614Z,5.90
2018-04-12T08:58:44.293Z,5.90
2018-04-12T09:01:13.614Z,6.10
2018-04-12T09:03:43.105Z,5.90
2018-04-12T09:06:12.593Z,5.90
2018-04-12T09:08:42.227Z,6.10
2018-04-12T09:11:11.731Z,5.70
2018-04-12T09:13:41.114Z,5.90
2018-04-12T09:16:10.956Z,5.80
2018-04-12T09:18:41.705Z,5.90
2018-04-12T09:21:11.240Z,5.90
2018-04-12T09:23:40.370Z,5.90
2018-04-12T09:26:09.615Z,6.00
2018-04-12T09:28:39.021Z,5.70
2018-04-12T09:31:08.584Z,5.60
2018-04-12T09:33:38.375Z,5.90
2018-04-12T09:36:08.681Z,5.60
2018-04-12T09:38:38.904Z,5.70
2018-04-12T09:41:08.673Z,5.60
2018-04-12T09:43:37.944Z,5.70
2018-04-12T09:46:07.236Z,5.70
2018-04-12T09:48:36.782Z,5.70
2018-04-12T09:51:07.099Z,5.60
2018-04-12T09:53:37.339Z,5.70
2018-04-12T09:56:07.075Z,5.60
2018-04-12T09:58:36.750Z,5.60
2018-04-12T10:01:12.226Z,5.70
2018-04-12T10:03:45.566Z,5.60
2018-04-12T10:06:21.139Z,5.70
2018-04-12T10:08:57.115Z,5.60
2018-04-12T10:11:26.873Z,5.60
2018-04-12T10:13:56.216Z,5.30
2018-04-12T10:16:25.886Z,5.60
2018-04-12T10:18:55.406Z,5.60
2018-04-12T10:21:25.736Z,5.40
2018-04-12T10:23:56.088Z,5.50
2018-04-12T10:26:25.580Z,5.40
2018-04-12T10:28:55.437Z,5.40
2018-04-12T10:31:25.311Z,5.20
2018-04-12T10:33:54.449Z,5.30
2018-04-12T10:36:25.352Z,5.40
2018-04-12T10:38:54.992Z,5.40
2018-04-12T10:41:24.252Z,5.20
2018-04-12T10:43:53.999Z,5.70
2018-04-12T10:46:23.635Z,5.60
2018-04-12T10:48:53.460Z,5.40
2018-04-12T10:51:23.352Z,5.40
2018-04-12T10:53:52.767Z,5.50
2018-04-12T10:56:22.976Z,5.60
2018-04-12T10:58:52.568Z,5.60
2018-04-12T11:01:23.262Z,5.30
2018-04-12T11:03:52.872Z,5.40
2018-04-12T11:06:22.869Z,5.30
2018-04-12T11:08:52.333Z,5.50
2018-04-12T11:11:21.945Z,5.30
2018-04-12T11:13:52.138Z,5.30
2018-04-12T11:16:22.194Z,5.40
2018-04-12T11:18:52.635Z,5.30
2018-04-12T11:21:21.959Z,5.40
2018-04-12T11:23:51.487Z,5.10
2018-04-12T11:26:20.959Z,5.10
2018-04-12T11:28:50.810Z,5.20
2018-04-12T11:31:20.325Z,5.10
2018-04-12T11:33:49.985Z,5.10
2018-04-12T11:36:19.578Z,5.20
2018-04-12T11:38:50.788Z,5.10
2018-04-12T11:41:20.773Z,5.20
2018-04-12T11:43:49.936Z,5.00
2018-04-12T11:46:19.993Z,4.80
2018-04-12T11:48:49.254Z,4.90
2018-04-12T11:51:18.975Z,4.70
2018-04-12T11:53:48.140Z,4.70
2018-04-12T11:56:17.684Z,4.60
2018-04-12T11:58:47.544Z,4.80
2018-04-12T12:01:17.648Z,4.70
2018-04-12T12:03:47.160Z,4.70
2018-04-12T12:06:17.134Z,4.40
2018-04-12T12:08:46.298Z,4.70
2018-04-12T12:11:15.727Z,4.60
2018-04-12T12:13:45.311Z,4.50
2018-04-12T12:16:15.001Z,4.60
2018-04-12T12:18:44.340Z,4.30
2018-04-12T12:21:13.856Z,4.50
2018-04-12T12:23:43.167Z,4.40
2018-04-12T12:26:12.877Z,4.40
2018-04-12T12:28:42.410Z,4.30
2018-04-12T12:31:12.770Z,4.40
2018-04-12T12:33:42.553Z,4.50
2018-04-12T12:36:12.169Z,4.40
2018-04-12T12:38:42.878Z,4.50
2018-04-12T12:41:13.173Z,4.40
2018-04-12T12:43:43.602Z,4.20
2018-04-12T12:46:13.718Z,4.50
2018-04-12T12:48:42.848Z,4.50
2018-04-12T12:51:12.956Z,4.40
2018-04-12T12:53:42.413Z,4.50
2018-04-12T12:56:11.875Z,4.20
2018-04-12T12:58:42.374Z,4.20
2018-04-12T13:01:12.092Z,3.90
2018-04-12T13:03:41.431Z,4.40
2018-04-12T13:06:11.121Z,4.10
2018-04-12T13:08:41.264Z,4.40
2018-04-12T13:11:10.742Z,4.20
2018-04-12T13:13:41.211Z,4.20
2018-04-12T13:16:11.497Z,4.40
2018-04-12T13:18:40.823Z,4.50
2018-04-12T13:21:10.153Z,4.50
2018-04-12T13:23:39.953Z,4.50
2018-04-12T13:26:09.803Z,4.50
2018-04-12T13:28:40.231Z,4.80
2018-04-12T13:31:11.184Z,4.70
2018-04-12T13:33:41.490Z,4.70
2018-04-12T13:36:11.787Z,4.80
2018-04-12T13:38:41.357Z,4.50
2018-04-12T13:41:10.912Z,4.70
2018-04-12T13:43:41.402Z,4.60
2018-04-12T13:46:11.320Z,4.70
2018-04-12T13:48:41.630Z,4.80
2018-04-12T13:51:10.925Z,4.70
2018-04-12T13:53:40.635Z,5.10
2018-04-12T13:56:10.151Z,4.80
2018-04-12T13:58:39.897Z,5.00
2018-04-12T14:01:09.841Z,5.00
2018-04-12T14:03:39.842Z,5.10
2018-04-12T14:06:09.520Z,5.10
2018-04-12T14:08:39.031Z,5.00
2018-04-12T14:11:08.972Z,5.00
2018-04-12T14:13:39.372Z,5.20
2018-04-12T14:16:09.417Z,5.40
2018-04-12T14:18:39.490Z,5.30
2018-04-12T14:21:09.550Z,5.30
2018-04-12T14:23:39.209Z,5.10
2018-04-12T14:26:09.211Z,5.20
2018-04-12T14:28:38.576Z,5.30
2018-04-12T14:31:09.065Z,5.10
2018-04-12T14:33:39.423Z,5.30
2018-04-12T14:36:09.355Z,5.30
2018-04-12T14:38:38.867Z,5.40
2018-04-12T14:41:08.338Z,5.20
2018-04-12T14:43:38.842Z,5.20
2018-04-12T14:46:09.169Z,5.20
2018-04-12T14:48:38.842Z,5.30
2018-04-12T14:51:09.004Z,5.50
2018-04-12T14:53:38.309Z,5.20
2018-04-12T14:56:07.775Z,5.30
2018-04-12T14:58:37.140Z,5.30
2018-04-12T15:01:06.385Z,5.40
2018-04-12T15:03:35.988Z,5.30
2018-04-12T15:06:05.441Z,5.40
2018-04-12T15:08:35.735Z,5.60
2018-04-12T15:11:05.463Z,5.60
2018-04-12T15:13:36.298Z,5.50
2018-04-12T15:16:07.825Z,5.70
2018-04-12T15:18:37.149Z,5.70
2018-04-12T15:21:07.422Z,5.60
2018-04-12T15:23:44.299Z,5.50
2018-04-12T15:26:13.825Z,5.80
2018-04-12T15:28:43.206Z,5.70
2018-04-12T15:31:12.664Z,5.90
2018-04-12T15:33:43.050Z,5.90
2018-04-12T15:36:12.660Z,6.00
2018-04-12T15:38:42.375Z,6.00
2018-04-12T15:41:11.908Z,6.20
2018-04-12T15:43:42.152Z,6.20
2018-04-12T15:46:12.929Z,6.30
2018-04-12T15:48:42.716Z,6.20
2018-04-12T15:51:12.204Z,6.10
2018-04-12T15:53:41.719Z,6.20
2018-04-12T15:56:11.549Z,6.70
2018-04-12T15:58:41.450Z,6.60
2018-04-12T16:01:11.203Z,6.60
2018-04-12T16:03:41.689Z,6.60
2018-04-12T16:06:11.134Z,6.60
2018-04-12T16:08:41.712Z,6.50
2018-04-12T16:11:11.547Z,6.80
2018-04-12T16:13:40.941Z,6.60
2018-04-12T16:16:11.522Z,6.80
2018-04-12T16:18:41.893Z,6.90
2018-04-12T16:21:11.082Z,6.90
2018-04-12T16:23:40.747Z,6.70
2018-04-12T16:26:10.675Z,6.40
2018-04-12T16:28:40.421Z,6.40
2018-04-12T16:31:09.830Z,6.00
2018-04-12T16:33:39.168Z,6.10
2018-04-12T16:36:08.707Z,6.30
2018-04-12T16:38:38.621Z,6.30
2018-04-12T16:41:08.449Z,6.30
2018-04-12T16:43:37.817Z,6.40
2018-04-12T16:46:07.498Z,6.70
2018-04-12T16:48:38.736Z,6.70
2018-04-12T16:51:09.484Z,6.60
2018-04-12T16:53:38.889Z,6.60
2018-04-12T16:56:09.219Z,7.10
2018-04-12T16:58:39.495Z,7.10
2018-04-12T17:01:09.211Z,6.90
2018-04-12T17:03:38.775Z,6.90
2018-04-12T17:06:08.445Z,7.00
2018-04-12T17:08:38.153Z,7.30
2018-04-12T17:11:09.047Z,8.20
2018-04-12T17:13:40.452Z,8.30
2018-04-12T17:16:10.945Z,8.40
2018-04-12T17:18:40.841Z,8.30
2018-04-12T17:21:11.011Z,8.40
2018-04-12T17:23:41.259Z,8.70
2018-04-12T17:26:11.089Z,8.70
2018-04-12T17:28:40.301Z,8.90
2018-04-12T17:31:09.606Z,9.10
2018-04-12T17:33:40.083Z,8.70
2018-04-12T17:36:09.431Z,8.70
2018-04-12T17:38:38.932Z,8.50
2018-04-12T18:30:08.153Z,8.30
2018-04-12T18:32:37.379Z,8.70
2018-04-12T18:35:06.562Z,8.70
2018-04-12T18:37:35.804Z,8.80
2018-04-12T18:40:05.877Z,8.90
2018-04-12T18:42:35.565Z,9.00
2018-04-12T18:45:05.306Z,9.40
2018-04-12T18:47:35.000Z,9.30
2018-04-12T18:50:10.195Z,9.40
2018-04-12T18:52:40.374Z,9.30
2018-04-12T18:55:09.904Z,9.20
2018-04-12T18:57:39.175Z,9.00
2018-04-12T19:00:08.510Z,9.10
2018-04-12T19:02:38.611Z,9.00
2018-04-12T19:05:08.254Z,8.80
2018-04-12T19:07:38.734Z,9.10
2018-04-12T19:10:08.032Z,9.30
2018-04-12T19:12:37.343Z,8.60
2018-04-12T19:15:06.620Z,8.90
2018-04-12T19:17:36.120Z,8.30
2018-04-12T19:20:05.569Z,8.40
2018-04-12T19:22:35.686Z,8.60
2018-04-12T19:25:06.055Z,8.60
2018-04-12T19:27:35.458Z,8.90
2018-04-12T19:30:05.095Z,8.70
2018-04-12T19:32:36.019Z,8.90
2018-04-12T19:35:05.121Z,9.00
2018-04-12T19:37:34.631Z,9.00
2018-04-12T19:40:03.946Z,8.90
2018-04-12T19:42:34.048Z,9.30
2018-04-12T19:45:03.456Z,9.10
2018-04-12T19:47:33.075Z,9.00
2018-04-12T19:50:03.382Z,8.90
2018-04-12T19:52:32.456Z,9.30
2018-04-12T19:55:01.813Z,8.90
2018-04-12T19:57:31.914Z,8.70
2018-04-12T20:00:01.960Z,9.00
2018-04-12T20:02:31.162Z,8.90
2018-04-12T20:05:01.112Z,9.80
2018-04-12T20:07:30.476Z,9.80
2018-04-12T20:09:59.773Z,9.80
2018-04-12T20:12:29.328Z,9.80
2018-04-12T20:14:58.812Z,9.70
2018-04-12T20:17:28.628Z,9.50
2018-04-12T20:19:57.616Z,9.60
2018-04-12T20:22:26.947Z,9.40
2018-04-12T20:24:56.475Z,9.40
2018-04-12T20:27:25.536Z,9.40
2018-04-12T20:29:55.304Z,9.10
2018-04-12T20:32:24.601Z,9.10
2018-04-12T20:34:54.454Z,9.30
2018-04-12T20:37:24.405Z,9.60
2018-04-12T20:39:53.723Z,9.70
2018-04-12T20:42:23.186Z,9.40
2018-04-12T20:44:52.484Z,9.40
2018-04-12T20:47:21.697Z,9.50
2018-04-12T20:49:51.071Z,9.40
2018-04-12T20:52:20.423Z,9.20
2018-04-12T20:54:49.802Z,9.10
2018-04-12T20:57:19.095Z,8.90
2018-04-12T20:59:49.380Z,8.80
2018-04-12T21:02:18.525Z,8.90
2018-04-12T21:04:48.007Z,8.70
2018-04-12T21:07:17.317Z,8.90
2018-04-12T21:09:46.827Z,8.50
2018-04-12T21:12:16.489Z,8.60
2018-04-12T21:14:45.820Z,8.40
2018-04-12T21:17:15.176Z,8.70
2018-04-12T21:19:44.464Z,8.90
2018-04-12T21:22:14.237Z,8.60
2018-04-12T21:24:43.765Z,8.90
2018-04-12T21:27:13.019Z,8.90
2018-04-12T21:29:43.553Z,9.70
2018-04-12T21:32:12.715Z,9.40
2018-04-12T21:34:42.116Z,9.70
2018-04-12T21:37:12.235Z,9.80
2018-04-12T21:39:41.568Z,10.10
2018-04-12T21:42:11.072Z,10.20
2018-04-12T21:44:41.778Z,10.50
2018-04-12T21:47:10.872Z,10.70
2018-04-12T21:49:40.405Z,10.30
2018-04-12T21:52:10.568Z,10.00
2018-04-12T21:54:39.880Z,9.80
2018-04-12T21:57:09.315Z,10.10
2018-04-12T21:59:39.041Z,10.00
2018-04-12T22:02:08.207Z,10.20
2018-04-12T22:04:37.286Z,10.30
2018-04-12T22:07:06.507Z,10.70
2018-04-12T22:09:35.645Z,10.60
2018-04-12T22:12:04.915Z,10.60
2018-04-12T22:14:34.016Z,10.60
2018-04-12T22:17:03.686Z,10.70
2018-04-12T22:19:33.590Z,10.00
2018-04-12T22:22:03.142Z,10.30
2018-04-12T22:24:32.440Z,10.70
2018-04-12T22:27:01.664Z,10.90
2018-04-12T22:29:31.050Z,10.90
2018-04-12T22:32:01.567Z,11.30
2018-04-12T22:34:31.482Z,11.20
2018-04-12T22:37:00.764Z,11.20
2018-04-12T22:39:30.879Z,11.00
2018-04-12T22:42:00.551Z,10.90
2018-04-12T22:44:30.070Z,11.10
2018-04-12T22:46:59.998Z,10.80
2018-04-12T22:49:29.517Z,10.80
2018-04-12T22:51:58.820Z,11.10
2018-04-12T22:54:28.151Z,11.30
2018-04-12T22:56:57.641Z,11.40
2018-04-12T22:59:28.094Z,11.90
2018-04-12T23:01:57.991Z,11.90
2018-04-12T23:04:29.250Z,11.90
2018-04-12T23:06:58.374Z,11.90
2018-04-12T23:09:27.719Z,11.80
2018-04-12T23:11:57.045Z,11.70
2018-04-12T23:14:26.299Z,11.30
2018-04-12T23:16:55.594Z,11.20
2018-04-12T23:19:24.556Z,11.50
2018-04-12T23:21:53.942Z,11.30
2018-04-12T23:24:23.396Z,10.70
2018-04-12T23:26:52.713Z,10.50
2018-04-12T23:29:22.245Z,10.50
2018-04-12T23:31:51.279Z,10.30
2018-04-12T23:34:20.551Z,10.40
2018-04-12T23:36:50.116Z,10.60
2018-04-12T23:39:20.338Z,11.10
2018-04-12T23:41:50.440Z,11.00
2018-04-12T23:44:20.749Z,11.20
2018-04-12T23:46:50.036Z,11.20
2018-04-12T23:49:19.470Z,11.30
2018-04-12T23:51:49.022Z,11.40
2018-04-12T23:54:18.088Z,11.40
2018-04-12T23:56:47.506Z,11.50
2018-04-12T23:59:16.758Z,11.40
